sensor_id;sensor_type;location;lat;lon;timestamp;P1;durP1;ratioP1;P2;durP2;ratioP2
79128;SDS011;68529;43.286;23.360;2023-06-19T00:02:17;9.73;;;6.80;;
79128;SDS011;68529;43.286;23.360;2023-06-19T00:04:42;7.35;;;6.65;;
79128;SDS011;68529;43.286;23.360;2023-06-19T00:07:07;7.32;;;6.25;;
79128;SDS011;68529;43.286;23.360;2023-06-19T00:09:33;8.52;;;6.88;;
79128;SDS011;68529;43.286;23.360;2023-06-19T00:11:58;7.38;;;6.72;;
79128;SDS011;68529;43.286;23.360;2023-06-19T00:14:24;7.72;;;6.40;;
79128;SDS011;68529;43.286;23.360;2023-06-19T00:16:50;7.45;;;6.60;;
79128;SDS011;68529;43.286;23.360;2023-06-19T00:19:16;8.50;;;6.78;;
79128;SDS011;68529;43.286;23.360;2023-06-19T00:21:42;7.18;;;6.47;;
79128;SDS011;68529;43.286;23.360;2023-06-19T00:24:07;7.47;;;6.60;;
79128;SDS011;68529;43.286;23.360;2023-06-19T00:26:34;8.98;;;6.70;;
79128;SDS011;68529;43.286;23.360;2023-06-19T00:28:59;7.47;;;6.35;;
79128;SDS011;68529;43.286;23.360;2023-06-19T00:31:25;7.10;;;6.50;;
79128;SDS011;68529;43.286;23.360;2023-06-19T00:33:52;8.32;;;6.40;;
79128;SDS011;68529;43.286;23.360;2023-06-19T00:36:18;7.30;;;6.55;;
79128;SDS011;68529;43.286;23.360;2023-06-19T00:38:48;6.60;;;6.00;;
79128;SDS011;68529;43.286;23.360;2023-06-19T00:41:14;7.88;;;5.32;;
79128;SDS011;68529;43.286;23.360;2023-06-19T00:43:41;6.68;;;6.00;;
79128;SDS011;68529;43.286;23.360;2023-06-19T00:46:07;6.72;;;6.00;;
79128;SDS011;68529;43.286;23.360;2023-06-19T00:48:33;9.48;;;6.35;;
79128;SDS011;68529;43.286;23.360;2023-06-19T00:50:59;7.32;;;5.85;;
79128;SDS011;68529;43.286;23.360;2023-06-19T00:53:25;11.77;;;6.30;;
79128;SDS011;68529;43.286;23.360;2023-06-19T00:55:52;7.32;;;6.18;;
79128;SDS011;68529;43.286;23.360;2023-06-19T00:58:19;6.10;;;5.60;;
79128;SDS011;68529;43.286;23.360;2023-06-19T01:00:45;6.65;;;6.05;;
79128;SDS011;68529;43.286;23.360;2023-06-19T01:03:10;5.90;;;5.30;;
79128;SDS011;68529;43.286;23.360;2023-06-19T01:05:36;7.65;;;6.03;;
79128;SDS011;68529;43.286;23.360;2023-06-19T01:08:08;6.60;;;5.78;;
79128;SDS011;68529;43.286;23.360;2023-06-19T01:10:52;7.90;;;6.13;;
79128;SDS011;68529;43.286;23.360;2023-06-19T01:15:48;5.78;;;5.15;;
79128;SDS011;68529;43.286;23.360;2023-06-19T01:18:14;6.38;;;5.82;;
79128;SDS011;68529;43.286;23.360;2023-06-19T01:20:41;6.40;;;5.80;;
79128;SDS011;68529;43.286;23.360;2023-06-19T01:23:10;8.60;;;6.00;;
79128;SDS011;68529;43.286;23.360;2023-06-19T01:25:36;6.63;;;6.03;;
79128;SDS011;68529;43.286;23.360;2023-06-19T01:28:02;5.93;;;5.43;;
79128;SDS011;68529;43.286;23.360;2023-06-19T01:30:34;8.85;;;6.43;;
79128;SDS011;68529;43.286;23.360;2023-06-19T01:33:16;9.65;;;5.38;;
79128;SDS011;68529;43.286;23.360;2023-06-19T01:35:48;6.43;;;5.55;;
79128;SDS011;68529;43.286;23.360;2023-06-19T01:38:15;6.85;;;5.38;;
79128;SDS011;68529;43.286;23.360;2023-06-19T01:40:42;6.70;;;6.13;;
79128;SDS011;68529;43.286;23.360;2023-06-19T01:43:08;8.15;;;5.45;;
79128;SDS011;68529;43.286;23.360;2023-06-19T01:45:34;5.50;;;4.95;;
79128;SDS011;68529;43.286;23.360;2023-06-19T01:48:00;5.90;;;5.30;;
79128;SDS011;68529;43.286;23.360;2023-06-19T01:50:25;7.97;;;5.70;;
79128;SDS011;68529;43.286;23.360;2023-06-19T01:52:51;6.25;;;5.40;;
79128;SDS011;68529;43.286;23.360;2023-06-19T01:55:17;6.57;;;5.80;;
79128;SDS011;68529;43.286;23.360;2023-06-19T01:57:43;9.45;;;5.35;;
79128;SDS011;68529;43.286;23.360;2023-06-19T02:00:10;7.85;;;5.50;;
79128;SDS011;68529;43.286;23.360;2023-06-19T02:02:36;5.88;;;5.38;;
79128;SDS011;68529;43.286;23.360;2023-06-19T02:05:02;6.10;;;5.57;;
79128;SDS011;68529;43.286;23.360;2023-06-19T02:07:28;6.55;;;4.85;;
79128;SDS011;68529;43.286;23.360;2023-06-19T02:09:53;5.22;;;4.70;;
79128;SDS011;68529;43.286;23.360;2023-06-19T02:12:19;7.50;;;5.90;;
79128;SDS011;68529;43.286;23.360;2023-06-19T02:14:44;5.63;;;5.13;;
79128;SDS011;68529;43.286;23.360;2023-06-19T02:17:10;5.68;;;4.90;;
79128;SDS011;68529;43.286;23.360;2023-06-19T02:19:35;6.67;;;5.60;;
79128;SDS011;68529;43.286;23.360;2023-06-19T02:22:01;8.13;;;5.03;;
79128;SDS011;68529;43.286;23.360;2023-06-19T02:24:26;6.23;;;5.40;;
79128;SDS011;68529;43.286;23.360;2023-06-19T02:26:52;6.10;;;5.50;;
79128;SDS011;68529;43.286;23.360;2023-06-19T02:29:17;7.63;;;5.25;;
79128;SDS011;68529;43.286;23.360;2023-06-19T02:31:43;7.50;;;4.87;;
79128;SDS011;68529;43.286;23.360;2023-06-19T02:34:09;7.40;;;5.10;;
79128;SDS011;68529;43.286;23.360;2023-06-19T02:36:35;8.67;;;5.60;;
79128;SDS011;68529;43.286;23.360;2023-06-19T02:39:01;5.57;;;5.13;;
79128;SDS011;68529;43.286;23.360;2023-06-19T02:41:26;5.50;;;4.90;;
79128;SDS011;68529;43.286;23.360;2023-06-19T02:43:52;8.13;;;5.05;;
79128;SDS011;68529;43.286;23.360;2023-06-19T02:46:17;6.95;;;4.95;;
79128;SDS011;68529;43.286;23.360;2023-06-19T02:48:43;7.40;;;5.18;;
79128;SDS011;68529;43.286;23.360;2023-06-19T02:51:08;5.70;;;5.13;;
79128;SDS011;68529;43.286;23.360;2023-06-19T02:53:34;5.70;;;5.10;;
79128;SDS011;68529;43.286;23.360;2023-06-19T02:55:59;6.23;;;5.13;;
79128;SDS011;68529;43.286;23.360;2023-06-19T02:58:25;5.73;;;4.80;;
79128;SDS011;68529;43.286;23.360;2023-06-19T03:00:51;7.53;;;5.33;;
79128;SDS011;68529;43.286;23.360;2023-06-19T03:03:17;8.13;;;5.10;;
79128;SDS011;68529;43.286;23.360;2023-06-19T03:05:43;7.23;;;5.20;;
79128;SDS011;68529;43.286;23.360;2023-06-19T03:08:08;5.90;;;4.97;;
79128;SDS011;68529;43.286;23.360;2023-06-19T03:10:34;5.43;;;4.93;;
79128;SDS011;68529;43.286;23.360;2023-06-19T03:12:59;6.93;;;5.43;;
79128;SDS011;68529;43.286;23.360;2023-06-19T03:15:25;8.33;;;5.73;;
79128;SDS011;68529;43.286;23.360;2023-06-19T03:17:52;5.53;;;5.03;;
79128;SDS011;68529;43.286;23.360;2023-06-19T03:20:18;5.97;;;5.20;;
79128;SDS011;68529;43.286;23.360;2023-06-19T03:22:43;6.13;;;5.43;;
79128;SDS011;68529;43.286;23.360;2023-06-19T03:25:09;8.03;;;5.50;;
79128;SDS011;68529;43.286;23.360;2023-06-19T03:27:35;7.10;;;5.13;;
79128;SDS011;68529;43.286;23.360;2023-06-19T03:30:01;7.30;;;5.20;;
79128;SDS011;68529;43.286;23.360;2023-06-19T03:32:31;5.93;;;4.93;;
79128;SDS011;68529;43.286;23.360;2023-06-19T03:34:56;5.20;;;4.70;;
79128;SDS011;68529;43.286;23.360;2023-06-19T03:37:22;5.43;;;4.93;;
79128;SDS011;68529;43.286;23.360;2023-06-19T03:39:47;6.47;;;4.87;;
79128;SDS011;68529;43.286;23.360;2023-06-19T03:42:13;5.53;;;5.03;;
79128;SDS011;68529;43.286;23.360;2023-06-19T03:44:38;6.28;;;5.18;;
79128;SDS011;68529;43.286;23.360;2023-06-19T03:47:05;6.00;;;5.30;;
79128;SDS011;68529;43.286;23.360;2023-06-19T03:49:31;7.07;;;5.00;;
79128;SDS011;68529;43.286;23.360;2023-06-19T03:51:56;5.80;;;4.68;;
79128;SDS011;68529;43.286;23.360;2023-06-19T03:54:21;5.27;;;4.77;;
79128;SDS011;68529;43.286;23.360;2023-06-19T03:56:47;4.97;;;4.50;;
79128;SDS011;68529;43.286;23.360;2023-06-19T03:59:12;5.83;;;5.33;;
79128;SDS011;68529;43.286;23.360;2023-06-19T04:01:37;6.10;;;4.93;;
79128;SDS011;68529;43.286;23.360;2023-06-19T04:04:03;6.78;;;5.15;;
79128;SDS011;68529;43.286;23.360;2023-06-19T04:06:28;5.73;;;5.07;;
79128;SDS011;68529;43.286;23.360;2023-06-19T04:08:54;5.60;;;5.10;;
79128;SDS011;68529;43.286;23.360;2023-06-19T04:11:19;5.37;;;4.87;;
79128;SDS011;68529;43.286;23.360;2023-06-19T04:13:45;5.80;;;4.73;;
79128;SDS011;68529;43.286;23.360;2023-06-19T04:16:11;6.30;;;5.18;;
79128;SDS011;68529;43.286;23.360;2023-06-19T04:18:36;5.33;;;4.27;;
79128;SDS011;68529;43.286;23.360;2023-06-19T04:21:02;5.40;;;4.70;;
79128;SDS011;68529;43.286;23.360;2023-06-19T04:23:27;6.07;;;4.70;;
79128;SDS011;68529;43.286;23.360;2023-06-19T04:25:53;5.40;;;4.82;;
79128;SDS011;68529;43.286;23.360;2023-06-19T04:28:18;5.25;;;4.72;;
79128;SDS011;68529;43.286;23.360;2023-06-19T04:30:43;5.38;;;4.97;;
79128;SDS011;68529;43.286;23.360;2023-06-19T04:33:09;4.93;;;4.53;;
79128;SDS011;68529;43.286;23.360;2023-06-19T04:35:34;5.25;;;4.85;;
79128;SDS011;68529;43.286;23.360;2023-06-19T04:38:05;4.60;;;4.20;;
79128;SDS011;68529;43.286;23.360;2023-06-19T04:40:31;4.75;;;4.38;;
79128;SDS011;68529;43.286;23.360;2023-06-19T04:42:57;5.05;;;4.65;;
79128;SDS011;68529;43.286;23.360;2023-06-19T04:45:22;5.50;;;4.40;;
79128;SDS011;68529;43.286;23.360;2023-06-19T04:47:48;5.55;;;4.30;;
79128;SDS011;68529;43.286;23.360;2023-06-19T04:50:13;5.20;;;4.63;;
79128;SDS011;68529;43.286;23.360;2023-06-19T04:52:40;5.90;;;4.55;;
79128;SDS011;68529;43.286;23.360;2023-06-19T04:55:06;5.10;;;4.70;;
79128;SDS011;68529;43.286;23.360;2023-06-19T04:57:34;7.75;;;5.20;;
79128;SDS011;68529;43.286;23.360;2023-06-19T05:00:02;5.05;;;4.55;;
79128;SDS011;68529;43.286;23.360;2023-06-19T05:02:32;4.82;;;4.28;;
79128;SDS011;68529;43.286;23.360;2023-06-19T05:04:58;6.63;;;4.28;;
79128;SDS011;68529;43.286;23.360;2023-06-19T05:07:27;5.18;;;4.68;;
79128;SDS011;68529;43.286;23.360;2023-06-19T05:09:54;4.75;;;4.35;;
79128;SDS011;68529;43.286;23.360;2023-06-19T05:12:20;5.35;;;4.50;;
79128;SDS011;68529;43.286;23.360;2023-06-19T05:14:45;4.93;;;4.50;;
79128;SDS011;68529;43.286;23.360;2023-06-19T05:17:10;5.32;;;4.57;;
79128;SDS011;68529;43.286;23.360;2023-06-19T05:19:36;5.70;;;4.80;;
79128;SDS011;68529;43.286;23.360;2023-06-19T05:22:02;5.00;;;4.57;;
79128;SDS011;68529;43.286;23.360;2023-06-19T05:24:27;9.55;;;5.07;;
79128;SDS011;68529;43.286;23.360;2023-06-19T05:26:52;5.18;;;4.65;;
79128;SDS011;68529;43.286;23.360;2023-06-19T05:29:18;4.72;;;4.25;;
79128;SDS011;68529;43.286;23.360;2023-06-19T05:31:44;4.55;;;4.15;;
79128;SDS011;68529;43.286;23.360;2023-06-19T05:34:10;6.22;;;5.05;;
79128;SDS011;68529;43.286;23.360;2023-06-19T05:36:35;5.50;;;5.00;;
79128;SDS011;68529;43.286;23.360;2023-06-19T05:39:00;5.13;;;4.70;;
79128;SDS011;68529;43.286;23.360;2023-06-19T05:41:26;5.30;;;4.82;;
79128;SDS011;68529;43.286;23.360;2023-06-19T05:43:51;5.75;;;5.13;;
79128;SDS011;68529;43.286;23.360;2023-06-19T05:46:16;5.07;;;4.68;;
79128;SDS011;68529;43.286;23.360;2023-06-19T05:48:42;5.00;;;4.40;;
79128;SDS011;68529;43.286;23.360;2023-06-19T05:51:07;4.63;;;4.22;;
79128;SDS011;68529;43.286;23.360;2023-06-19T05:53:33;4.40;;;4.00;;
79128;SDS011;68529;43.286;23.360;2023-06-19T05:55:58;5.38;;;4.35;;
79128;SDS011;68529;43.286;23.360;2023-06-19T05:58:23;4.45;;;4.05;;
79128;SDS011;68529;43.286;23.360;2023-06-19T06:00:50;6.10;;;4.13;;
79128;SDS011;68529;43.286;23.360;2023-06-19T06:03:22;5.88;;;4.57;;
79128;SDS011;68529;43.286;23.360;2023-06-19T06:05:48;4.43;;;4.10;;
79128;SDS011;68529;43.286;23.360;2023-06-19T06:08:14;6.18;;;4.50;;
79128;SDS011;68529;43.286;23.360;2023-06-19T06:10:40;4.70;;;4.18;;
79128;SDS011;68529;43.286;23.360;2023-06-19T06:13:05;4.38;;;4.07;;
79128;SDS011;68529;43.286;23.360;2023-06-19T06:15:31;4.40;;;4.00;;
79128;SDS011;68529;43.286;23.360;2023-06-19T06:17:56;5.00;;;4.22;;
79128;SDS011;68529;43.286;23.360;2023-06-19T06:20:21;4.57;;;4.18;;
79128;SDS011;68529;43.286;23.360;2023-06-19T06:22:47;5.63;;;3.78;;
79128;SDS011;68529;43.286;23.360;2023-06-19T06:25:12;6.82;;;6.22;;
79128;SDS011;68529;43.286;23.360;2023-06-19T06:27:38;5.35;;;3.80;;
79128;SDS011;68529;43.286;23.360;2023-06-19T06:30:03;4.13;;;3.83;;
79128;SDS011;68529;43.286;23.360;2023-06-19T06:32:29;5.88;;;4.40;;
79128;SDS011;68529;43.286;23.360;2023-06-19T06:34:56;5.88;;;4.20;;
79128;SDS011;68529;43.286;23.360;2023-06-19T06:37:22;4.88;;;4.43;;
79128;SDS011;68529;43.286;23.360;2023-06-19T06:39:50;5.20;;;4.70;;
79128;SDS011;68529;43.286;23.360;2023-06-19T06:42:16;4.53;;;4.05;;
79128;SDS011;68529;43.286;23.360;2023-06-19T06:44:42;4.30;;;3.90;;
79128;SDS011;68529;43.286;23.360;2023-06-19T06:47:07;4.00;;;3.60;;
79128;SDS011;68529;43.286;23.360;2023-06-19T06:49:33;4.22;;;3.92;;
79128;SDS011;68529;43.286;23.360;2023-06-19T06:51:58;4.05;;;3.75;;
79128;SDS011;68529;43.286;23.360;2023-06-19T06:54:24;4.70;;;4.20;;
79128;SDS011;68529;43.286;23.360;2023-06-19T06:56:49;4.13;;;3.83;;
79128;SDS011;68529;43.286;23.360;2023-06-19T06:59:17;4.78;;;4.22;;
79128;SDS011;68529;43.286;23.360;2023-06-19T07:01:42;4.70;;;4.35;;
79128;SDS011;68529;43.286;23.360;2023-06-19T07:04:08;4.45;;;4.15;;
79128;SDS011;68529;43.286;23.360;2023-06-19T07:06:33;4.32;;;4.03;;
79128;SDS011;68529;43.286;23.360;2023-06-19T07:08:58;4.63;;;4.22;;
79128;SDS011;68529;43.286;23.360;2023-06-19T07:11:24;6.18;;;4.25;;
79128;SDS011;68529;43.286;23.360;2023-06-19T07:13:49;4.15;;;3.75;;
79128;SDS011;68529;43.286;23.360;2023-06-19T07:16:15;3.92;;;3.63;;
79128;SDS011;68529;43.286;23.360;2023-06-19T07:18:40;4.10;;;3.80;;
79128;SDS011;68529;43.286;23.360;2023-06-19T07:21:08;4.40;;;4.10;;
79128;SDS011;68529;43.286;23.360;2023-06-19T07:23:39;4.47;;;4.13;;
79128;SDS011;68529;43.286;23.360;2023-06-19T07:26:06;4.28;;;3.78;;
79128;SDS011;68529;43.286;23.360;2023-06-19T07:28:31;4.25;;;3.88;;
79128;SDS011;68529;43.286;23.360;2023-06-19T07:30:57;4.55;;;4.15;;
79128;SDS011;68529;43.286;23.360;2023-06-19T07:33:22;4.38;;;3.72;;
79128;SDS011;68529;43.286;23.360;2023-06-19T07:35:47;4.43;;;3.83;;
79128;SDS011;68529;43.286;23.360;2023-06-19T07:38:13;4.13;;;3.63;;
79128;SDS011;68529;43.286;23.360;2023-06-19T07:40:38;4.82;;;4.43;;
79128;SDS011;68529;43.286;23.360;2023-06-19T07:43:05;4.22;;;3.83;;
79128;SDS011;68529;43.286;23.360;2023-06-19T07:45:30;5.03;;;4.30;;
79128;SDS011;68529;43.286;23.360;2023-06-19T07:47:56;4.80;;;4.05;;
79128;SDS011;68529;43.286;23.360;2023-06-19T07:50:22;4.63;;;4.22;;
79128;SDS011;68529;43.286;23.360;2023-06-19T07:52:47;3.90;;;3.60;;
79128;SDS011;68529;43.286;23.360;2023-06-19T07:55:13;4.18;;;3.88;;
79128;SDS011;68529;43.286;23.360;2023-06-19T07:57:38;4.28;;;3.97;;
79128;SDS011;68529;43.286;23.360;2023-06-19T08:00:04;4.57;;;4.05;;
79128;SDS011;68529;43.286;23.360;2023-06-19T08:02:36;4.40;;;4.00;;
79128;SDS011;68529;43.286;23.360;2023-06-19T08:05:02;4.28;;;3.97;;
79128;SDS011;68529;43.286;23.360;2023-06-19T08:07:28;4.30;;;4.00;;
79128;SDS011;68529;43.286;23.360;2023-06-19T08:19:24;4.38;;;4.07;;
79128;SDS011;68529;43.286;23.360;2023-06-19T08:21:49;4.22;;;3.90;;
79128;SDS011;68529;43.286;23.360;2023-06-19T08:24:14;5.13;;;4.60;;
79128;SDS011;68529;43.286;23.360;2023-06-19T08:26:40;4.88;;;4.47;;
79128;SDS011;68529;43.286;23.360;2023-06-19T08:29:05;4.93;;;4.53;;
79128;SDS011;68529;43.286;23.360;2023-06-19T08:31:31;4.82;;;4.45;;
79128;SDS011;68529;43.286;23.360;2023-06-19T08:33:56;4.40;;;4.03;;
79128;SDS011;68529;43.286;23.360;2023-06-19T08:36:21;4.72;;;4.30;;
79128;SDS011;68529;43.286;23.360;2023-06-19T08:38:47;5.20;;;4.80;;
79128;SDS011;68529;43.286;23.360;2023-06-19T09:29:40;4.85;;;4.35;;
79128;SDS011;68529;43.286;23.360;2023-06-19T09:34:49;3.90;;;3.60;;
79128;SDS011;68529;43.286;23.360;2023-06-19T09:37:18;4.40;;;4.10;;
79128;SDS011;68529;43.286;23.360;2023-06-19T09:39:49;4.78;;;4.38;;
79128;SDS011;68529;43.286;23.360;2023-06-19T09:42:18;4.63;;;4.22;;
79128;SDS011;68529;43.286;23.360;2023-06-19T09:44:49;4.63;;;4.32;;
79128;SDS011;68529;43.286;23.360;2023-06-19T09:47:23;4.80;;;4.40;;
79128;SDS011;68529;43.286;23.360;2023-06-19T09:49:55;5.78;;;4.28;;
79128;SDS011;68529;43.286;23.360;2023-06-19T09:52:21;4.60;;;4.18;;
79128;SDS011;68529;43.286;23.360;2023-06-19T09:54:52;4.65;;;4.25;;
79128;SDS011;68529;43.286;23.360;2023-06-19T09:57:18;5.22;;;4.20;;
79128;SDS011;68529;43.286;23.360;2023-06-19T09:59:48;4.80;;;4.38;;
79128;SDS011;68529;43.286;23.360;2023-06-19T10:02:17;4.30;;;4.00;;
79128;SDS011;68529;43.286;23.360;2023-06-19T10:04:46;4.80;;;4.40;;
79128;SDS011;68529;43.286;23.360;2023-06-19T10:07:20;4.60;;;4.18;;
79128;SDS011;68529;43.286;23.360;2023-06-19T10:15:40;4.65;;;4.13;;
79128;SDS011;68529;43.286;23.360;2023-06-19T10:18:00;6.45;;;4.40;;
79128;SDS011;68529;43.286;23.360;2023-06-19T10:20:31;5.68;;;4.53;;
79128;SDS011;68529;43.286;23.360;2023-06-19T10:25:39;5.00;;;4.60;;
79128;SDS011;68529;43.286;23.360;2023-06-19T10:28:16;4.47;;;4.18;;
79128;SDS011;68529;43.286;23.360;2023-06-19T10:30:42;4.97;;;4.25;;
79128;SDS011;68529;43.286;23.360;2023-06-19T10:33:07;4.60;;;4.30;;
79128;SDS011;68529;43.286;23.360;2023-06-19T10:35:39;5.45;;;4.13;;
79128;SDS011;68529;43.286;23.360;2023-06-19T10:38:08;4.40;;;4.10;;
79128;SDS011;68529;43.286;23.360;2023-06-19T10:40:37;6.05;;;4.35;;
79128;SDS011;68529;43.286;23.360;2023-06-19T10:43:03;4.57;;;4.15;;
79128;SDS011;68529;43.286;23.360;2023-06-19T10:45:29;4.80;;;4.07;;
79128;SDS011;68529;43.286;23.360;2023-06-19T10:47:55;4.32;;;4.00;;
79128;SDS011;68529;43.286;23.360;2023-06-19T10:50:21;4.93;;;4.53;;
79128;SDS011;68529;43.286;23.360;2023-06-19T10:52:48;5.38;;;4.40;;
79128;SDS011;68529;43.286;23.360;2023-06-19T10:55:17;4.97;;;4.47;;
79128;SDS011;68529;43.286;23.360;2023-06-19T10:57:46;4.30;;;3.90;;
79128;SDS011;68529;43.286;23.360;2023-06-19T11:00:22;4.93;;;4.43;;
79128;SDS011;68529;43.286;23.360;2023-06-19T11:02:49;4.05;;;3.75;;
79128;SDS011;68529;43.286;23.360;2023-06-19T11:05:14;4.45;;;4.05;;
79128;SDS011;68529;43.286;23.360;2023-06-19T11:07:40;4.72;;;4.15;;
79128;SDS011;68529;43.286;23.360;2023-06-19T11:10:05;4.75;;;4.35;;
79128;SDS011;68529;43.286;23.360;2023-06-19T11:12:32;4.13;;;3.83;;
79128;SDS011;68529;43.286;23.360;2023-06-19T11:15:04;4.97;;;4.57;;
79128;SDS011;68529;43.286;23.360;2023-06-19T11:17:30;4.38;;;4.03;;
79128;SDS011;68529;43.286;23.360;2023-06-19T11:19:56;7.40;;;4.40;;
79128;SDS011;68529;43.286;23.360;2023-06-19T11:22:33;4.13;;;3.72;;
79128;SDS011;68529;43.286;23.360;2023-06-19T11:25:04;4.78;;;3.83;;
79128;SDS011;68529;43.286;23.360;2023-06-19T11:27:31;4.53;;;4.22;;
79128;SDS011;68529;43.286;23.360;2023-06-19T11:29:57;4.82;;;4.43;;
79128;SDS011;68529;43.286;23.360;2023-06-19T11:32:23;5.05;;;3.90;;
79128;SDS011;68529;43.286;23.360;2023-06-19T11:34:55;4.53;;;4.13;;
79128;SDS011;68529;43.286;23.360;2023-06-19T11:37:21;4.15;;;3.85;;
79128;SDS011;68529;43.286;23.360;2023-06-19T11:39:47;4.20;;;3.80;;
79128;SDS011;68529;43.286;23.360;2023-06-19T11:42:14;6.20;;;4.60;;
79128;SDS011;68529;43.286;23.360;2023-06-19T11:45:00;6.60;;;3.95;;
79128;SDS011;68529;43.286;23.360;2023-06-19T11:47:30;4.20;;;3.80;;
79128;SDS011;68529;43.286;23.360;2023-06-19T11:49:56;4.82;;;4.43;;
79128;SDS011;68529;43.286;23.360;2023-06-19T11:52:22;4.47;;;4.10;;
79128;SDS011;68529;43.286;23.360;2023-06-19T11:54:48;4.47;;;4.18;;
79128;SDS011;68529;43.286;23.360;2023-06-19T11:57:13;4.90;;;4.13;;
79128;SDS011;68529;43.286;23.360;2023-06-19T11:59:39;4.03;;;3.63;;
79128;SDS011;68529;43.286;23.360;2023-06-19T12:02:05;5.80;;;4.20;;
79128;SDS011;68529;43.286;23.360;2023-06-19T12:04:31;4.18;;;3.88;;
79128;SDS011;68529;43.286;23.360;2023-06-19T12:06:56;5.75;;;4.13;;
79128;SDS011;68529;43.286;23.360;2023-06-19T12:09:22;4.57;;;4.18;;
79128;SDS011;68529;43.286;23.360;2023-06-19T12:11:47;4.47;;;4.07;;
79128;SDS011;68529;43.286;23.360;2023-06-19T12:14:13;4.75;;;3.95;;
79128;SDS011;68529;43.286;23.360;2023-06-19T12:16:38;5.78;;;4.28;;
79128;SDS011;68529;43.286;23.360;2023-06-19T12:19:04;5.03;;;4.45;;
79128;SDS011;68529;43.286;23.360;2023-06-19T12:21:29;4.32;;;4.03;;
79128;SDS011;68529;43.286;23.360;2023-06-19T12:23:54;4.55;;;3.60;;
79128;SDS011;68529;43.286;23.360;2023-06-19T12:26:20;4.82;;;4.35;;
79128;SDS011;68529;43.286;23.360;2023-06-19T12:28:46;4.70;;;4.30;;
79128;SDS011;68529;43.286;23.360;2023-06-19T12:31:11;4.53;;;4.22;;
79128;SDS011;68529;43.286;23.360;2023-06-19T12:50:12;4.65;;;4.25;;
79128;SDS011;68529;43.286;23.360;2023-06-19T12:52:37;7.07;;;4.60;;
79128;SDS011;68529;43.286;23.360;2023-06-19T12:55:03;4.78;;;4.00;;
79128;SDS011;68529;43.286;23.360;2023-06-19T12:57:28;4.78;;;4.38;;
79128;SDS011;68529;43.286;23.360;2023-06-19T12:59:54;5.22;;;4.32;;
79128;SDS011;68529;43.286;23.360;2023-06-19T13:02:19;5.20;;;4.70;;
79128;SDS011;68529;43.286;23.360;2023-06-19T13:04:44;5.20;;;4.70;;
79128;SDS011;68529;43.286;23.360;2023-06-19T13:07:10;4.97;;;4.57;;
79128;SDS011;68529;43.286;23.360;2023-06-19T13:09:35;4.60;;;4.18;;
79128;SDS011;68529;43.286;23.360;2023-06-19T13:12:01;5.03;;;4.43;;
79128;SDS011;68529;43.286;23.360;2023-06-19T13:14:27;4.57;;;4.20;;
79128;SDS011;68529;43.286;23.360;2023-06-19T13:16:53;5.25;;;4.75;;
79128;SDS011;68529;43.286;23.360;2023-06-19T13:19:18;5.05;;;4.55;;
79128;SDS011;68529;43.286;23.360;2023-06-19T13:21:44;5.22;;;4.78;;
79128;SDS011;68529;43.286;23.360;2023-06-19T13:24:10;4.85;;;4.35;;
79128;SDS011;68529;43.286;23.360;2023-06-19T13:26:35;4.93;;;4.53;;
79128;SDS011;68529;43.286;23.360;2023-06-19T13:29:01;4.40;;;4.00;;
79128;SDS011;68529;43.286;23.360;2023-06-19T13:31:27;5.00;;;4.50;;
79128;SDS011;68529;43.286;23.360;2023-06-19T13:33:52;4.60;;;4.25;;
79128;SDS011;68529;43.286;23.360;2023-06-19T13:36:18;4.28;;;3.97;;
79128;SDS011;68529;43.286;23.360;2023-06-19T13:38:44;4.95;;;4.45;;
79128;SDS011;68529;43.286;23.360;2023-06-19T13:41:11;4.75;;;4.35;;
79128;SDS011;68529;43.286;23.360;2023-06-19T13:43:37;4.85;;;4.20;;
79128;SDS011;68529;43.286;23.360;2023-06-19T13:46:05;4.43;;;4.07;;
79128;SDS011;68529;43.286;23.360;2023-06-19T13:48:31;4.82;;;4.43;;
79128;SDS011;68529;43.286;23.360;2023-06-19T13:50:56;4.57;;;4.18;;
79128;SDS011;68529;43.286;23.360;2023-06-19T13:53:24;5.05;;;4.65;;
79128;SDS011;68529;43.286;23.360;2023-06-19T13:55:50;6.20;;;4.50;;
79128;SDS011;68529;43.286;23.360;2023-06-19T13:58:15;5.20;;;4.70;;
79128;SDS011;68529;43.286;23.360;2023-06-19T14:00:41;5.50;;;4.22;;
79128;SDS011;68529;43.286;23.360;2023-06-19T14:03:06;4.95;;;4.45;;
79128;SDS011;68529;43.286;23.360;2023-06-19T14:05:32;4.45;;;4.15;;
79128;SDS011;68529;43.286;23.360;2023-06-19T14:07:58;5.15;;;4.75;;
79128;SDS011;68529;43.286;23.360;2023-06-19T14:10:24;5.43;;;4.75;;
79128;SDS011;68529;43.286;23.360;2023-06-19T14:12:49;4.82;;;4.35;;
79128;SDS011;68529;43.286;23.360;2023-06-19T14:15:14;4.70;;;4.35;;
79128;SDS011;68529;43.286;23.360;2023-06-19T14:17:40;4.20;;;3.85;;
79128;SDS011;68529;43.286;23.360;2023-06-19T14:20:07;4.70;;;4.30;;
79128;SDS011;68529;43.286;23.360;2023-06-19T14:22:34;5.32;;;3.80;;
79128;SDS011;68529;43.286;23.360;2023-06-19T14:24:59;5.43;;;4.25;;
79128;SDS011;68529;43.286;23.360;2023-06-19T14:27:27;5.50;;;4.40;;
79128;SDS011;68529;43.286;23.360;2023-06-19T14:29:53;4.28;;;3.80;;
79128;SDS011;68529;43.286;23.360;2023-06-19T14:32:19;4.57;;;4.28;;
79128;SDS011;68529;43.286;23.360;2023-06-19T14:34:45;7.05;;;4.20;;
79128;SDS011;68529;43.286;23.360;2023-06-19T14:37:11;6.07;;;4.40;;
79128;SDS011;68529;43.286;23.360;2023-06-19T14:39:36;6.90;;;4.63;;
79128;SDS011;68529;43.286;23.360;2023-06-19T14:42:01;5.45;;;4.95;;
79128;SDS011;68529;43.286;23.360;2023-06-19T14:44:27;4.85;;;4.35;;
79128;SDS011;68529;43.286;23.360;2023-06-19T14:46:52;4.95;;;4.45;;
79128;SDS011;68529;43.286;23.360;2023-06-19T14:49:18;5.88;;;4.35;;
79128;SDS011;68529;43.286;23.360;2023-06-19T14:51:43;5.45;;;4.80;;
79128;SDS011;68529;43.286;23.360;2023-06-19T14:54:09;4.78;;;4.00;;
79128;SDS011;68529;43.286;23.360;2023-06-19T14:56:34;4.75;;;4.30;;
79128;SDS011;68529;43.286;23.360;2023-06-19T14:59:00;4.82;;;4.40;;
79128;SDS011;68529;43.286;23.360;2023-06-19T15:01:25;4.95;;;4.30;;
79128;SDS011;68529;43.286;23.360;2023-06-19T15:03:50;5.35;;;4.88;;
79128;SDS011;68529;43.286;23.360;2023-06-19T15:06:16;4.88;;;4.32;;
79128;SDS011;68529;43.286;23.360;2023-06-19T15:08:42;4.88;;;4.47;;
79128;SDS011;68529;43.286;23.360;2023-06-19T15:11:07;4.72;;;4.38;;
79128;SDS011;68529;43.286;23.360;2023-06-19T15:13:33;4.90;;;4.50;;
79128;SDS011;68529;43.286;23.360;2023-06-19T15:15:58;5.03;;;4.30;;
79128;SDS011;68529;43.286;23.360;2023-06-19T15:18:24;6.22;;;4.78;;
79128;SDS011;68529;43.286;23.360;2023-06-19T15:20:50;5.00;;;4.50;;
79128;SDS011;68529;43.286;23.360;2023-06-19T15:23:16;5.13;;;4.32;;
79128;SDS011;68529;43.286;23.360;2023-06-19T15:25:42;5.75;;;4.70;;
79128;SDS011;68529;43.286;23.360;2023-06-19T15:28:07;5.50;;;4.85;;
79128;SDS011;68529;43.286;23.360;2023-06-19T15:30:33;5.72;;;5.10;;
79128;SDS011;68529;43.286;23.360;2023-06-19T15:32:58;7.97;;;4.47;;
79128;SDS011;68529;43.286;23.360;2023-06-19T15:35:24;5.07;;;4.60;;
79128;SDS011;68529;43.286;23.360;2023-06-19T15:37:50;5.85;;;5.20;;
79128;SDS011;68529;43.286;23.360;2023-06-19T15:40:16;6.72;;;5.20;;
79128;SDS011;68529;43.286;23.360;2023-06-19T15:42:41;7.90;;;5.60;;
79128;SDS011;68529;43.286;23.360;2023-06-19T15:45:07;5.18;;;4.68;;
79128;SDS011;68529;43.286;23.360;2023-06-19T15:47:33;5.93;;;5.05;;
79128;SDS011;68529;43.286;23.360;2023-06-19T15:49:59;6.43;;;5.13;;
79128;SDS011;68529;43.286;23.360;2023-06-19T15:52:25;5.22;;;4.70;;
79128;SDS011;68529;43.286;23.360;2023-06-19T15:54:51;4.95;;;4.50;;
79128;SDS011;68529;43.286;23.360;2023-06-19T15:57:17;4.85;;;4.40;;